Time;durP1;ratioP1;P1;durP2;ratioP2;P2;SDS_P1;SDS_P2;PMS_P1;PMS_P2;Temp;Humidity;BMP_temperature;BMP_pressure;BME280_temperature;BME280_humidity;BME280_pressure;Samples;Min_cycle;Max_cycle;Signal;HPM_P1;HPM_P2
2022/04/14 00:01:39;;;;;;;;;;;;;;;21.40;22.50;98285.63;5076758;28;1906;-75
2022/04/14 00:04:04;;;;;;;;;;;;;;;21.56;22.19;98284.91;5076812;28;979;-75
2022/04/14 00:06:30;;;;;;;;;;;;;;;21.40;22.65;98284.81;5076547;28;1063;-76
2022/04/14 00:08:55;;;;;;;;;;;;;;;21.19;22.63;98286.84;5108407;28;984;-75
2022/04/14 00:11:21;;;;;;;;;;;;;;;21.11;23.04;98282.56;5076949;28;973;-76
2022/04/14 00:13:46;;;;;;;;;;;;;;;21.36;22.69;98286.94;5076625;28;870;-75
2022/04/14 00:16:12;;;;;;;;;;;;;;;21.65;22.30;98282.25;5076205;28;968;-75
2022/04/14 00:18:37;;;;;;;;;;;;;;;21.76;22.02;98282.81;5076282;28;1149;-76
2022/04/14 00:21:02;;;;;;;;;;;;;;;21.49;22.42;98279.38;5076321;28;1127;-76
2022/04/14 00:23:28;;;;;;;;;;;;;;;21.11;23.02;98288.22;5076482;28;1913;-75
2022/04/14 00:25:53;;;;;;;;;;;;;;;21.06;22.68;98286.69;5108079;28;1143;-75
2022/04/14 00:28:19;;;;;;;;;;;;;;;21.61;22.41;98275.88;5076478;28;945;-75
2022/04/14 00:30:44;;;;;;;;;;;;;;;21.82;21.89;98286.72;5076106;28;900;-75
2022/04/14 00:33:10;;;;;;;;;;;;;;;21.62;21.92;98288.00;5076243;28;984;-76
2022/04/14 00:35:35;;;;;;;;;;;;;;;21.24;22.63;98291.19;5076024;28;990;-75
2022/04/14 00:38:01;;;;;;;;;;;;;;;20.84;23.25;98296.03;5109029;28;945;-75
2022/04/14 00:40:26;;;;;;;;;;;;;;;21.26;22.90;98288.72;5076093;28;937;-75
2022/04/14 00:42:52;;;;;;;;;;;;;;;21.52;22.37;98295.50;5076048;28;1914;-76
2022/04/14 00:45:17;;;;;;;;;;;;;;;21.81;22.01;98287.13;5075930;28;953;-75
2022/04/14 00:47:42;;;;;;;;;;;;;;;21.25;22.76;98287.94;5075812;28;948;-75
2022/04/14 00:50:08;;;;;;;;;;;;;;;21.11;22.71;98293.88;5108725;28;964;-76
2022/04/14 00:52:33;;;;;;;;;;;;;;;20.97;23.11;98294.16;5075930;28;1070;-75
2022/04/14 00:54:59;;;;;;;;;;;;;;;21.43;22.54;98286.78;5075684;28;837;-75
2022/04/14 00:57:24;;;;;;;;;;;;;;;21.67;21.98;98290.31;5075938;28;849;-75
2022/04/14 00:59:50;;;;;;;;;;;;;;;21.46;22.38;98291.59;5108405;28;904;-75
2022/04/14 01:02:15;;;;;;;;;;;;;;;21.27;22.42;98288.28;5075709;28;1910;-75
2022/04/14 01:04:41;;;;;;;;;;;;;;;21.20;22.51;98285.63;5075999;28;989;-76
2022/04/14 01:07:07;;;;;;;;;;;;;;;21.39;22.33;98292.50;5075628;28;904;-75
2022/04/14 01:09:33;;;;;;;;;;;;;;;21.58;22.21;98285.25;5113670;28;1033;-76
2022/04/14 01:11:58;;;;;;;;;;;;;;;21.89;21.60;98290.63;5096951;28;942;-75
2022/04/14 01:14:33;;;;;;;;;;;;;;;21.52;22.25;98290.63;5113731;28;976;-76
2022/04/14 01:17:00;;;;;;;;;;;;;;;21.22;22.62;98288.78;5113765;28;936;-76
2022/04/14 01:19:25;;;;;;;;;;;;;;;21.25;22.71;98289.97;5113480;28;1077;-75
2022/04/14 01:22:09;;;;;;;;;;;;;;;21.70;22.18;98290.22;5096359;28;1910;-76
2022/04/14 01:24:35;;;;;;;;;;;;;;;21.88;21.81;98289.81;5113601;28;959;-75
2022/04/14 01:27:00;;;;;;;;;;;;;;;21.35;22.38;98286.16;5113591;28;982;-75
2022/04/14 01:29:27;;;;;;;;;;;;;;;21.22;22.37;98288.00;5096731;28;1131;-76
2022/04/14 01:31:52;;;;;;;;;;;;;;;21.08;22.80;98284.22;5113416;28;1146;-75
2022/04/14 01:34:18;;;;;;;;;;;;;;;21.55;22.04;98278.44;5113505;28;1032;-75
2022/04/14 01:36:43;;;;;;;;;;;;;;;21.74;21.72;98279.63;5096453;28;1012;-75
2022/04/14 01:39:10;;;;;;;;;;;;;;;21.43;21.98;98276.25;5113465;28;993;-75
2022/04/14 01:41:37;;;;;;;;;;;;;;;21.37;22.18;98280.84;5077484;28;2334;-76
2022/04/14 01:44:02;;;;;;;;;;;;;;;21.05;22.82;98275.81;5075814;28;1010;-75
2022/04/14 01:46:28;;;;;;;;;;;;;;;21.26;22.41;98274.59;5075202;28;992;-76
2022/04/14 01:48:54;;;;;;;;;;;;;;;21.53;22.20;98268.78;5075231;28;892;-76
2022/04/14 01:51:19;;;;;;;;;;;;;;;21.69;21.83;98273.66;5074845;28;808;-76
2022/04/14 01:53:45;;;;;;;;;;;;;;;21.35;22.40;98280.50;5075265;28;896;-76
2022/04/14 01:56:10;;;;;;;;;;;;;;;21.19;22.73;98271.88;5075253;28;868;-75
2022/04/14 01:58:36;;;;;;;;;;;;;;;21.20;22.71;98271.47;5075889;28;923;-75
2022/04/14 02:01:01;;;;;;;;;;;;;;;21.56;22.32;98274.38;5056480;28;980;-75
2022/04/14 02:03:27;;;;;;;;;;;;;;;21.77;21.68;98267.41;5056482;28;1909;-76
2022/04/14 02:05:52;;;;;;;;;;;;;;;21.38;22.41;98273.94;5056538;28;1168;-76
2022/04/14 02:08:18;;;;;;;;;;;;;;;21.19;22.67;98278.38;5056680;28;1035;-75
2022/04/14 02:10:43;;;;;;;;;;;;;;;21.06;22.68;98269.72;5056110;28;1212;-76
2022/04/14 02:13:08;;;;;;;;;;;;;;;21.31;22.42;98272.06;5056489;28;1184;-75
2022/04/14 02:15:34;;;;;;;;;;;;;;;21.63;21.97;98267.72;5056370;28;1023;-76
2022/04/14 02:17:59;;;;;;;;;;;;;;;21.44;22.34;98265.72;5056084;28;994;-75
2022/04/14 02:20:25;;;;;;;;;;;;;;;21.25;22.51;98270.97;5056452;28;1009;-76
2022/04/14 02:22:51;;;;;;;;;;;;;;;20.97;23.03;98265.88;5056175;28;1973;-75
2022/04/14 02:25:16;;;;;;;;;;;;;;;21.16;22.75;98273.56;5056713;28;1031;-75
2022/04/14 02:27:42;;;;;;;;;;;;;;;21.47;22.08;98260.00;5056274;28;989;-75
2022/04/14 02:30:07;;;;;;;;;;;;;;;21.66;22.16;98278.19;5056012;28;1094;-76
2022/04/14 02:32:33;;;;;;;;;;;;;;;21.29;22.58;98268.03;5072216;28;979;-75
2022/04/14 02:34:58;;;;;;;;;;;;;;;21.17;22.57;98275.16;5078379;28;1111;-75
2022/04/14 02:37:24;;;;;;;;;;;;;;;21.27;22.89;98274.13;5078527;28;961;-76
2022/04/14 02:39:49;;;;;;;;;;;;;;;21.63;22.15;98273.41;5078217;28;975;-75
2022/04/14 02:42:14;;;;;;;;;;;;;;;21.71;21.97;98274.03;5077548;28;1910;-75
2022/04/14 02:44:40;;;;;;;;;;;;;;;21.31;22.37;98271.28;5077504;28;1216;-76
2022/04/14 02:47:05;;;;;;;;;;;;;;;21.06;22.65;98278.19;5077475;28;1256;-75
2022/04/14 02:49:31;;;;;;;;;;;;;;;21.07;22.82;98282.63;5095386;28;1217;-75
2022/04/14 02:51:56;;;;;;;;;;;;;;;21.42;22.30;98268.22;5095550;28;1314;-76
2022/04/14 02:54:22;;;;;;;;;;;;;;;21.73;22.12;98277.22;5095408;28;1331;-75
2022/04/14 02:56:47;;;;;;;;;;;;;;;21.39;22.25;98281.19;5095453;28;1324;-75
2022/04/14 02:59:12;;;;;;;;;;;;;;;21.27;22.69;98285.47;5095842;28;953;-75
2022/04/14 03:01:38;;;;;;;;;;;;;;;21.18;22.61;98279.56;5095651;28;1973;-75
2022/04/14 03:04:03;;;;;;;;;;;;;;;21.37;22.63;98288.53;5095595;28;995;-75
2022/04/14 03:06:29;;;;;;;;;;;;;;;21.66;22.05;98283.84;5095755;28;922;-76
2022/04/14 03:08:54;;;;;;;;;;;;;;;21.65;22.00;98284.28;5061357;28;1261;-75
2022/04/14 03:11:20;;;;;;;;;;;;;;;21.32;22.50;98284.97;5094573;28;1232;-75
2022/04/14 03:13:45;;;;;;;;;;;;;;;21.22;22.79;98293.66;5094888;28;1267;-75
2022/04/14 03:16:11;;;;;;;;;;;;;;;21.21;22.54;98295.69;5094852;28;1248;-75
2022/04/14 03:18:36;;;;;;;;;;;;;;;21.57;22.38;98287.28;5094772;28;1318;-75
2022/04/14 03:21:02;;;;;;;;;;;;;;;21.66;22.13;98295.19;5082197;28;1216;-75
2022/04/14 03:23:27;;;;;;;;;;;;;;;21.42;22.38;98302.19;5077139;28;1906;-75
2022/04/14 03:25:53;;;;;;;;;;;;;;;21.17;22.67;98302.66;5077516;28;1276;-75
2022/04/14 03:28:18;;;;;;;;;;;;;;;21.26;22.65;98300.84;5076901;28;1169;-75
2022/04/14 03:30:44;;;;;;;;;;;;;;;21.25;22.66;98304.91;5077022;28;1165;-75
2022/04/14 03:33:09;;;;;;;;;;;;;;;21.62;22.26;98308.63;5077663;28;1236;-75
2022/04/14 03:35:35;;;;;;;;;;;;;;;21.73;21.92;98299.88;5077141;28;1164;-76
2022/04/14 03:38:00;;;;;;;;;;;;;;;21.29;22.54;98305.63;5077198;28;1201;-76
2022/04/14 03:40:25;;;;;;;;;;;;;;;21.08;22.78;98306.06;5077216;28;920;-75
2022/04/14 03:42:51;;;;;;;;;;;;;;;21.25;22.69;98310.56;5077459;28;1902;-75
2022/04/14 03:45:16;;;;;;;;;;;;;;;21.66;21.98;98317.84;5058345;28;1136;-76
2022/04/14 03:47:42;;;;;;;;;;;;;;;21.71;21.97;98308.00;5077190;28;858;-75
2022/04/14 03:50:07;;;;;;;;;;;;;;;21.49;22.31;98313.34;5077366;28;1025;-75
2022/04/14 03:52:33;;;;;;;;;;;;;;;21.25;22.53;98319.06;5077230;28;940;-75
2022/04/14 03:54:58;;;;;;;;;;;;;;;21.04;22.88;98323.13;5077262;28;1141;-75
2022/04/14 03:57:24;;;;;;;;;;;;;;;21.00;22.97;98321.59;5076945;28;985;-75
2022/04/14 03:59:50;;;;;;;;;;;;;;;21.51;22.50;98322.22;5076914;28;893;-75
2022/04/14 04:02:15;;;;;;;;;;;;;;;21.70;22.24;98318.53;5076606;28;1967;-75
2022/04/14 04:04:40;;;;;;;;;;;;;;;21.31;22.61;98330.72;5076490;28;985;-75
2022/04/14 04:07:06;;;;;;;;;;;;;;;21.29;22.64;98321.81;5076932;28;955;-76
2022/04/14 04:09:34;;;;;;;;;;;;;;;21.13;22.61;98325.34;5076428;28;1016;-75
2022/04/14 04:12:00;;;;;;;;;;;;;;;21.16;22.64;98330.16;5076760;28;951;-75
2022/04/14 04:14:26;;;;;;;;;;;;;;;21.69;22.24;98327.47;5076962;28;962;-74
2022/04/14 04:16:51;;;;;;;;;;;;;;;21.74;21.89;98336.25;5076675;28;1038;-75
2022/04/14 04:19:16;;;;;;;;;;;;;;;21.37;22.62;98333.81;5076432;28;963;-75
2022/04/14 04:21:42;;;;;;;;;;;;;;;21.25;22.84;98333.22;5076269;28;1906;-75
2022/04/14 04:24:07;;;;;;;;;;;;;;;21.22;22.98;98339.72;5074341;28;957;-76
2022/04/14 04:26:33;;;;;;;;;;;;;;;21.17;23.00;98343.06;5076380;28;1015;-75
2022/04/14 04:28:58;;;;;;;;;;;;;;;20.98;23.17;98346.66;5076247;28;1015;-75
2022/04/14 04:31:24;;;;;;;;;;;;;;;21.00;23.20;98344.22;5076105;28;953;-75
2022/04/14 04:33:51;;;;;;;;;;;;;;;21.35;22.87;98348.41;5076465;28;959;-75
2022/04/14 04:36:19;;;;;;;;;;;;;;;21.64;22.27;98342.16;5076520;28;883;-76
2022/04/14 04:38:45;;;;;;;;;;;;;;;21.50;22.34;98340.41;5076340;28;928;-75
2022/04/14 04:41:10;;;;;;;;;;;;;;;21.24;22.85;98342.94;5073391;28;1051;-75
2022/04/14 04:43:36;;;;;;;;;;;;;;;21.16;23.07;98341.47;5073557;28;1979;-76
2022/04/14 04:46:01;;;;;;;;;;;;;;;21.07;22.97;98344.88;5090444;28;1009;-75
2022/04/14 04:48:27;;;;;;;;;;;;;;;21.53;22.58;98348.03;5073362;28;961;-76
2022/04/14 04:50:52;;;;;;;;;;;;;;;21.67;22.32;98347.75;5073548;28;970;-76
2022/04/14 04:53:18;;;;;;;;;;;;;;;21.33;22.74;98353.69;5073155;28;1209;-75
2022/04/14 04:55:43;;;;;;;;;;;;;;;21.27;22.92;98347.72;5053130;28;1137;-76
2022/04/14 04:58:08;;;;;;;;;;;;;;;21.13;23.02;98350.03;5053104;28;1062;-75
2022/04/14 05:00:34;;;;;;;;;;;;;;;21.30;23.14;98355.38;5053269;28;954;-75
2022/04/14 05:02:59;;;;;;;;;;;;;;;21.53;22.64;98360.16;5052864;28;1902;-75
2022/04/14 05:05:25;;;;;;;;;;;;;;;21.87;22.19;98361.91;5053223;28;1032;-76
2022/04/14 05:07:50;;;;;;;;;;;;;;;21.24;23.02;98354.28;5053092;28;1024;-76
2022/04/14 05:10:16;;;;;;;;;;;;;;;21.18;23.34;98366.50;5053201;28;1072;-76
2022/04/14 05:12:42;;;;;;;;;;;;;;;21.19;23.17;98368.09;5052903;28;1146;-75
2022/04/14 05:15:07;;;;;;;;;;;;;;;21.45;23.13;98372.06;5053131;28;926;-75
2022/04/14 05:17:33;;;;;;;;;;;;;;;21.63;22.74;98369.69;5053326;28;970;-76
2022/04/14 05:19:58;;;;;;;;;;;;;;;21.78;22.37;98365.31;5053062;28;992;-74
2022/04/14 05:22:24;;;;;;;;;;;;;;;21.35;22.96;98376.72;5052483;28;1983;-76
2022/04/14 05:24:49;;;;;;;;;;;;;;;21.31;23.18;98376.78;5052924;28;1058;-74
2022/04/14 05:27:14;;;;;;;;;;;;;;;21.35;23.20;98376.72;5069218;28;1053;-75
2022/04/14 05:29:40;;;;;;;;;;;;;;;21.28;23.29;98377.63;5075187;28;895;-75
2022/04/14 05:32:06;;;;;;;;;;;;;;;21.05;23.36;98380.50;5056596;28;1113;-75
2022/04/14 05:34:32;;;;;;;;;;;;;;;21.04;23.52;98378.91;5075176;28;748;-75
2022/04/14 05:36:58;;;;;;;;;;;;;;;20.97;23.82;98391.13;5075492;28;910;-75
2022/04/14 05:39:23;;;;;;;;;;;;;;;21.04;23.72;98384.56;5075490;28;970;-75
2022/04/14 05:41:49;;;;;;;;;;;;;;;21.09;23.63;98386.91;5075586;28;1914;-76
2022/04/14 05:44:14;;;;;;;;;;;;;;;21.36;23.29;98383.19;5073056;28;1000;-75
2022/04/14 05:46:40;;;;;;;;;;;;;;;21.46;23.19;98377.31;5075163;28;929;-75
2022/04/14 05:49:05;;;;;;;;;;;;;;;21.51;23.01;98378.84;5075045;28;854;-76
2022/04/14 05:51:30;;;;;;;;;;;;;;;21.36;23.32;98386.81;5075394;28;947;-75
2022/04/14 05:53:56;;;;;;;;;;;;;;;21.17;23.47;98391.19;5075226;28;883;-76
2022/04/14 05:56:21;;;;;;;;;;;;;;;21.14;23.66;98394.88;5075200;28;1006;-75
2022/04/14 05:58:47;;;;;;;;;;;;;;;21.61;22.96;98386.31;5075201;28;909;-75
2022/04/14 06:01:12;;;;;;;;;;;;;;;21.67;23.00;98387.41;5075225;28;1003;-75
2022/04/14 06:03:38;;;;;;;;;;;;;;;21.42;23.31;98387.09;5075195;28;1902;-75
2022/04/14 06:06:04;;;;;;;;;;;;;;;21.29;23.35;98386.91;5075049;28;901;-75
2022/04/14 06:08:30;;;;;;;;;;;;;;;21.12;23.60;98391.66;5074893;28;946;-75
2022/04/14 06:10:55;;;;;;;;;;;;;;;21.53;23.21;98390.50;5074741;28;920;-76
2022/04/14 06:13:20;;;;;;;;;;;;;;;21.69;23.06;98390.59;5072458;28;985;-75
2022/04/14 06:15:46;;;;;;;;;;;;;;;21.43;23.07;98388.69;5072416;28;1028;-75
2022/04/14 06:18:11;;;;;;;;;;;;;;;21.28;23.57;98396.63;5072317;28;1160;-75
2022/04/14 06:20:37;;;;;;;;;;;;;;;21.02;23.83;98392.66;5072311;28;1173;-75
2022/04/14 06:23:02;;;;;;;;;;;;;;;21.18;23.75;98394.81;5072386;28;1906;-75
2022/04/14 06:25:28;;;;;;;;;;;;;;;21.72;22.93;98389.72;5072349;28;1034;-75
2022/04/14 06:27:55;;;;;;;;;;;;;;;21.65;22.86;98395.50;5072288;28;1107;-75
2022/04/14 06:30:20;;;;;;;;;;;;;;;21.11;23.83;98409.88;5072247;28;1046;-75
2022/04/14 06:32:58;;;;;;;;;;;;;;;20.91;23.94;98403.38;5072102;28;1089;-75
2022/04/14 06:35:24;;;;;;;;;;;;;;;21.18;23.80;98412.56;5072131;28;1071;-75
2022/04/14 06:37:49;;;;;;;;;;;;;;;21.56;23.49;98403.81;5072227;28;944;-75
2022/04/14 06:40:15;;;;;;;;;;;;;;;21.77;22.94;98397.72;5072255;28;985;-76
2022/04/14 06:42:40;;;;;;;;;;;;;;;21.47;23.47;98400.75;5072151;28;1987;-75
2022/04/14 06:45:06;;;;;;;;;;;;;;;21.28;23.73;98408.75;5074215;28;925;-75
2022/04/14 06:47:32;;;;;;;;;;;;;;;21.10;23.82;98411.13;5077983;28;915;-75
2022/04/14 06:49:57;;;;;;;;;;;;;;;21.04;24.10;98412.84;5078196;28;897;-75
2022/04/14 06:52:23;;;;;;;;;;;;;;;21.48;23.51;98414.47;5077713;28;1031;-75
2022/04/14 06:54:48;;;;;;;;;;;;;;;21.77;23.07;98417.53;5078138;28;1201;-75
2022/04/14 06:57:14;;;;;;;;;;;;;;;21.64;23.24;98404.47;5077811;28;1291;-75
2022/04/14 06:59:39;;;;;;;;;;;;;;;21.19;23.86;98425.53;5077584;28;1161;-76
2022/04/14 07:02:05;;;;;;;;;;;;;;;21.08;24.06;98419.22;5077236;28;1906;-75
2022/04/14 07:04:30;;;;;;;;;;;;;;;20.98;24.30;98423.03;5077435;28;1529;-75
2022/04/14 07:06:56;;;;;;;;;;;;;;;21.45;23.37;98421.00;5078267;28;936;-76
2022/04/14 07:09:21;;;;;;;;;;;;;;;21.70;23.00;98420.50;5077836;28;1018;-75
2022/04/14 07:11:47;;;;;;;;;;;;;;;21.69;23.02;98418.91;5077945;28;927;-75
2022/04/14 07:14:14;;;;;;;;;;;;;;;21.41;23.26;98430.81;5077922;28;1026;-75
2022/04/14 07:16:40;;;;;;;;;;;;;;;21.16;23.72;98440.50;5077439;28;925;-75
2022/04/14 07:19:06;;;;;;;;;;;;;;;21.10;23.71;98438.63;5077540;28;855;-75
2022/04/14 07:21:31;;;;;;;;;;;;;;;21.31;23.38;98438.25;5077802;28;1556;-75
2022/04/14 07:23:56;;;;;;;;;;;;;;;21.69;23.13;98447.22;5077305;28;1966;-75
2022/04/14 07:26:22;;;;;;;;;;;;;;;21.84;22.53;98431.53;5077119;28;1436;-75
2022/04/14 07:28:47;;;;;;;;;;;;;;;21.25;23.26;98445.63;5077444;28;1197;-75
2022/04/14 07:31:13;;;;;;;;;;;;;;;21.16;23.65;98437.69;5077280;28;1257;-75
2022/04/14 07:33:39;;;;;;;;;;;;;;;21.20;23.41;98438.44;5076940;28;1311;-75
2022/04/14 07:36:04;;;;;;;;;;;;;;;21.38;23.18;98437.31;5077025;28;1248;-76
2022/04/14 07:38:30;;;;;;;;;;;;;;;21.70;22.64;98437.50;5076882;28;1192;-76
2022/04/14 07:40:58;;;;;;;;;;;;;;;21.85;22.18;98438.81;5076791;28;1222;-76
2022/04/14 07:43:24;;;;;;;;;;;;;;;21.37;23.13;98441.38;5076743;28;1914;-76
2022/04/14 07:45:49;;;;;;;;;;;;;;;21.04;23.37;98427.78;5076868;28;958;-75
2022/04/14 07:48:16;;;;;;;;;;;;;;;20.94;23.81;98433.66;5076848;28;954;-75
2022/04/14 07:50:42;;;;;;;;;;;;;;;21.04;23.44;98432.66;5077193;28;945;-75
2022/04/14 07:53:07;;;;;;;;;;;;;;;21.73;22.43;98424.50;5076948;28;945;-76
2022/04/14 07:55:33;;;;;;;;;;;;;;;21.83;22.42;98429.16;5077090;28;859;-76
2022/04/14 07:58:01;;;;;;;;;;;;;;;21.51;22.90;98438.31;5073801;28;985;-76
2022/04/14 08:00:27;;;;;;;;;;;;;;;21.31;23.08;98432.59;5057617;28;1017;-76
2022/04/14 08:02:56;;;;;;;;;;;;;;;21.27;23.17;98424.13;5074372;28;1906;-76
2022/04/14 08:05:22;;;;;;;;;;;;;;;21.30;23.18;98437.47;5074469;28;854;-76
2022/04/14 08:07:48;;;;;;;;;;;;;;;21.75;22.45;98422.81;5054129;28;933;-76
2022/04/14 08:10:13;;;;;;;;;;;;;;;21.77;22.48;98431.69;5054245;28;1022;-76
2022/04/14 08:12:39;;;;;;;;;;;;;;;21.28;23.14;98442.72;5053768;28;1056;-76
2022/04/14 08:15:04;;;;;;;;;;;;;;;21.17;23.36;98436.44;5020438;28;1058;-76
2022/04/14 08:17:30;;;;;;;;;;;;;;;21.09;23.49;98432.16;5053614;28;1270;-75
2022/04/14 08:19:55;;;;;;;;;;;;;;;21.50;22.94;98439.50;5056216;28;1312;-76
2022/04/14 08:22:21;;;;;;;;;;;;;;;21.72;22.52;98434.25;5033857;28;1913;-75
2022/04/14 08:24:47;;;;;;;;;;;;;;;21.51;22.55;98432.63;5033775;28;1128;-76
2022/04/14 08:27:13;;;;;;;;;;;;;;;21.28;22.89;98442.72;5033844;28;1089;-76
2022/04/14 08:29:39;;;;;;;;;;;;;;;21.07;23.43;98434.59;5018574;28;1009;-75
2022/04/14 08:32:07;;;;;;;;;;;;;;;21.14;23.42;98428.84;5019518;28;1160;-76
2022/04/14 08:34:33;;;;;;;;;;;;;;;21.59;22.56;98431.25;5013924;28;1030;-75
2022/04/14 08:36:58;;;;;;;;;;;;;;;21.70;22.56;98437.50;5013910;28;959;-76
2022/04/14 08:39:25;;;;;;;;;;;;;;;21.56;22.62;98443.47;4997404;28;1637;-75
2022/04/14 08:41:53;;;;;;;;;;;;;;;21.14;23.25;98448.66;5013837;28;1906;-75
2022/04/14 08:44:18;;;;;;;;;;;;;;;20.97;23.52;98442.03;5016123;28;1111;-76
2022/04/14 08:46:44;;;;;;;;;;;;;;;21.05;23.51;98445.56;5013607;28;1041;-76
2022/04/14 08:49:09;;;;;;;;;;;;;;;21.04;23.51;98449.63;5013811;28;1113;-76
2022/04/14 08:51:38;;;;;;;;;;;;;;;21.45;22.96;98438.00;5032314;28;984;-76
2022/04/14 08:54:03;;;;;;;;;;;;;;;21.70;22.75;98437.50;5053439;28;1064;-76
2022/04/14 08:56:29;;;;;;;;;;;;;;;21.39;22.96;98439.72;5053316;28;960;-76
2022/04/14 08:58:58;;;;;;;;;;;;;;;21.16;23.34;98443.34;5013225;28;1159;-75
2022/04/14 09:01:26;;;;;;;;;;;;;;;21.05;23.32;98442.75;5013660;28;955;-75
2022/04/14 09:03:55;;;;;;;;;;;;;;;20.94;23.52;98430.81;5013334;28;1971;-75
2022/04/14 09:06:21;;;;;;;;;;;;;;;21.32;23.07;98443.47;5013774;28;893;-76
2022/04/14 09:08:48;;;;;;;;;;;;;;;21.57;22.80;98433.72;5012898;28;1044;-75
2022/04/14 09:11:13;;;;;;;;;;;;;;;21.60;22.63;98435.66;5013229;28;1007;-75
2022/04/14 09:13:43;;;;;;;;;;;;;;;21.38;23.02;98435.28;5013417;28;1085;-76
2022/04/14 09:16:09;;;;;;;;;;;;;;;21.26;23.21;98428.19;5015919;28;1234;-75
2022/04/14 09:18:34;;;;;;;;;;;;;;;21.16;23.26;98426.38;5013025;28;1025;-75
2022/04/14 09:21:03;;;;;;;;;;;;;;;21.71;22.59;98433.44;5013148;28;1109;-74
2022/04/14 09:23:28;;;;;;;;;;;;;;;21.83;22.56;98418.63;5008971;28;1948;-76
2022/04/14 09:26:03;;;;;;;;;;;;;;;21.26;23.24;98425.38;4993877;28;934;-76
2022/04/14 09:28:29;;;;;;;;;;;;;;;21.10;23.49;98438.63;4993599;28;948;-76
2022/04/14 09:31:00;;;;;;;;;;;;;;;21.18;23.37;98432.38;4994012;28;1264;-76
2022/04/14 09:33:26;;;;;;;;;;;;;;;21.44;23.05;98429.91;4993707;28;952;-75
2022/04/14 09:36:13;;;;;;;;;;;;;;;21.79;22.55;98420.72;5016760;28;1265;-76
2022/04/14 09:38:57;;;;;;;;;;;;;;;21.83;22.52;98427.13;5033448;28;1002;-76
2022/04/14 09:41:25;;;;;;;;;;;;;;;21.35;23.28;98424.03;5052840;28;1017;-73
2022/04/14 09:43:54;;;;;;;;;;;;;;;21.21;23.27;98420.22;5052732;28;1902;-75
2022/04/14 09:46:20;;;;;;;;;;;;;;;21.00;23.61;98437.56;5053019;28;1169;-75
2022/04/14 09:49:18;;;;;;;;;;;;;;;21.07;23.44;98423.28;5053187;28;1033;-74
2022/04/14 09:51:46;;;;;;;;;;;;;;;21.59;22.80;98431.25;5052807;28;1010;-75
2022/04/14 09:54:15;;;;;;;;;;;;;;;21.68;22.77;98417.31;5012895;28;1054;-75
2022/04/14 09:56:43;;;;;;;;;;;;;;;21.46;23.02;98427.47;5013274;28;876;-75
2022/04/14 09:59:10;;;;;;;;;;;;;;;21.17;23.59;98419.47;5012674;28;955;-74
2022/04/14 10:01:35;;;;;;;;;;;;;;;21.26;23.32;98424.56;5013008;28;961;-75
2022/04/14 10:04:01;;;;;;;;;;;;;;;21.10;23.57;98427.31;5013045;28;1902;-75
2022/04/14 10:06:26;;;;;;;;;;;;;;;21.34;23.46;98426.06;5012850;28;923;-74
2022/04/14 10:08:52;;;;;;;;;;;;;;;21.62;22.88;98419.06;5013012;28;934;-76
2022/04/14 10:11:24;;;;;;;;;;;;;;;21.62;22.96;98412.59;5012810;28;879;-75
2022/04/14 10:13:50;;;;;;;;;;;;;;;21.19;23.54;98419.03;5012940;28;1050;-75
2022/04/14 10:16:18;;;;;;;;;;;;;;;21.02;23.74;98409.63;5029084;28;1524;-75
2022/04/14 10:18:43;;;;;;;;;;;;;;;21.05;23.79;98411.63;5032320;28;1122;-75
2022/04/14 10:21:09;;;;;;;;;;;;;;;20.94;23.99;98422.31;5033131;28;1269;-75
2022/04/14 10:23:34;;;;;;;;;;;;;;;21.31;23.50;98419.25;5035749;28;1945;-76
2022/04/14 10:25:59;;;;;;;;;;;;;;;21.58;23.04;98407.00;5052601;28;977;-75
2022/04/14 10:28:25;;;;;;;;;;;;;;;21.76;22.89;98407.44;5017940;28;1028;-75
2022/04/14 10:30:57;;;;;;;;;;;;;;;21.42;23.33;98410.56;4996692;28;1104;-75
2022/04/14 10:33:22;;;;;;;;;;;;;;;21.22;23.48;98413.31;4996559;28;1003;-74
2022/04/14 10:35:48;;;;;;;;;;;;;;;21.03;23.83;98402.75;4996633;28;1041;-75
2022/04/14 10:38:15;;;;;;;;;;;;;;;21.01;23.93;98402.38;5016005;28;973;-76
2022/04/14 10:40:44;;;;;;;;;;;;;;;21.28;23.46;98405.91;5016162;28;1013;-75
2022/04/14 10:43:10;;;;;;;;;;;;;;;21.61;23.14;98403.31;5016117;28;1902;-75
2022/04/14 10:45:48;;;;;;;;;;;;;;;21.61;23.07;98397.66;4976803;28;1416;-75
2022/04/14 10:48:25;;;;;;;;;;;;;;;21.27;23.35;98404.31;4960706;28;1003;-75
2022/04/14 10:51:08;;;;;;;;;;;;;;;21.21;23.54;98405.28;4976615;28;1082;-76
2022/04/14 10:53:39;;;;;;;;;;;;;;;21.10;24.04;98407.50;4977187;28;922;-75
2022/04/14 10:56:04;;;;;;;;;;;;;;;21.30;23.67;98409.16;4993238;28;998;-75
2022/04/14 10:58:35;;;;;;;;;;;;;;;21.69;23.14;98407.56;4996237;28;985;-75
2022/04/14 11:01:01;;;;;;;;;;;;;;;21.78;22.93;98402.13;5008542;28;1080;-74
2022/04/14 11:03:45;;;;;;;;;;;;;;;21.42;23.46;98404.09;5035354;28;1977;-75
2022/04/14 11:06:11;;;;;;;;;;;;;;;21.23;23.74;98416.94;5015393;28;986;-76
2022/04/14 11:08:45;;;;;;;;;;;;;;;21.11;23.68;98418.38;5010633;28;1335;-76
2022/04/14 11:11:11;;;;;;;;;;;;;;;21.14;23.81;98417.53;4995980;28;1073;-76
2022/04/14 11:13:55;;;;;;;;;;;;;;;21.07;24.00;98411.97;4976012;28;1045;-75
2022/04/14 11:16:38;;;;;;;;;;;;;;;21.59;23.43;98408.59;4976199;28;1010;-76
2022/04/14 11:19:19;;;;;;;;;;;;;;;21.64;23.19;98395.97;4976629;28;955;-76
2022/04/14 11:24:38;;;;;;;;;;;;;;;21.24;23.81;98410.03;5035165;28;948;-76
2022/04/14 11:27:14;;;;;;;;;;;;;;;21.13;24.07;98398.91;5034927;28;985;-75
2022/04/14 11:29:40;;;;;;;;;;;;;;;21.06;24.11;98399.88;5034802;28;1018;-75
2022/04/14 11:32:06;;;;;;;;;;;;;;;21.14;24.10;98400.53;4994947;28;1050;-76
2022/04/14 11:34:32;;;;;;;;;;;;;;;21.59;23.53;98402.94;4975392;28;1012;-76
2022/04/14 11:36:58;;;;;;;;;;;;;;;21.90;23.07;98400.66;4967334;28;1243;-76
2022/04/14 11:39:25;;;;;;;;;;;;;;;21.43;23.68;98395.16;4995328;28;985;-76
2022/04/14 11:41:53;;;;;;;;;;;;;;;21.36;23.77;98394.50;4972425;28;1309;-76
2022/04/14 11:44:19;;;;;;;;;;;;;;;21.15;24.02;98384.38;4947214;28;1664;-76
2022/04/14 11:46:46;;;;;;;;;;;;;;;20.96;24.30;98394.41;4975540;28;1038;-76
2022/04/14 11:49:12;;;;;;;;;;;;;;;21.31;23.88;98393.78;4975678;28;1361;-76
2022/04/14 11:51:50;;;;;;;;;;;;;;;21.59;23.52;98385.94;4975747;28;1050;-76
2022/04/14 11:54:27;;;;;;;;;;;;;;;21.52;23.49;98383.25;4959776;28;1027;-76
2022/04/14 11:56:53;;;;;;;;;;;;;;;21.35;23.69;98392.88;4975592;28;948;-76
2022/04/14 11:59:39;;;;;;;;;;;;;;;21.25;23.99;98395.47;4975511;28;1055;-76
2022/04/14 12:02:06;;;;;;;;;;;;;;;21.13;24.17;98381.94;4995588;28;1899;-76
2022/04/14 12:04:35;;;;;;;;;;;;;;;21.53;23.65;98399.81;5012951;28;952;-76
2022/04/14 12:07:01;;;;;;;;;;;;;;;21.84;23.38;98386.22;4994840;28;1058;-76
2022/04/14 12:09:26;;;;;;;;;;;;;;;21.45;23.75;98374.91;4994945;28;1099;-76
2022/04/14 12:11:52;;;;;;;;;;;;;;;21.37;23.88;98387.59;4995058;28;925;-76
2022/04/14 12:14:18;;;;;;;;;;;;;;;21.35;23.96;98375.91;4957319;28;1165;-76
2022/04/14 12:16:47;;;;;;;;;;;;;;;21.14;24.34;98383.56;4975302;28;1140;-75
2022/04/14 12:19:12;;;;;;;;;;;;;;;21.47;23.84;98375.28;4980779;28;1010;-76
2022/04/14 12:21:38;;;;;;;;;;;;;;;21.76;23.42;98373.47;5033927;28;1092;-76
2022/04/14 12:24:03;;;;;;;;;;;;;;;21.33;23.95;98370.69;5033794;28;1910;-76
2022/04/14 12:26:29;;;;;;;;;;;;;;;21.04;24.28;98381.72;5049004;28;1110;-76
2022/04/14 12:28:54;;;;;;;;;;;;;;;21.11;24.50;98373.09;5036661;28;1304;-76
2022/04/14 12:31:20;;;;;;;;;;;;;;;21.13;24.34;98381.16;5053186;28;1271;-76
2022/04/14 12:33:58;;;;;;;;;;;;;;;21.46;23.84;98363.16;5050551;28;1141;-77
2022/04/14 12:36:33;;;;;;;;;;;;;;;21.62;23.58;98372.94;5051059;28;1221;-76
2022/04/14 12:38:59;;;;;;;;;;;;;;;21.28;24.16;98366.28;5053935;28;1035;-76
2022/04/14 12:41:24;;;;;;;;;;;;;;;21.07;24.30;98375.19;5053863;28;958;-76
2022/04/14 12:43:51;;;;;;;;;;;;;;;21.09;24.56;98375.56;5052501;28;1981;-76
2022/04/14 12:46:24;;;;;;;;;;;;;;;21.18;24.36;98372.97;5074031;28;950;-76
2022/04/14 12:49:00;;;;;;;;;;;;;;;21.66;23.70;98374.47;5073332;28;1415;-76
2022/04/14 12:51:32;;;;;;;;;;;;;;;21.88;23.28;98363.47;5053004;28;920;-77
2022/04/14 12:53:57;;;;;;;;;;;;;;;21.89;23.32;98367.13;5036718;28;915;-76
2022/04/14 12:56:23;;;;;;;;;;;;;;;21.38;24.13;98363.72;5053421;28;874;-77
2022/04/14 12:59:06;;;;;;;;;;;;;;;21.28;24.31;98354.19;5053313;28;1118;-77
2022/04/14 13:01:51;;;;;;;;;;;;;;;21.08;24.73;98366.25;5053529;28;1085;-76